Terminal Aerodrome Forecast
Issued by NWS Caribou, ME

Home | Current Version | Previous Version | Text Only | Print | Product List | Glossary On
Versions: 1 2 3 4 5 6 7 8 9 10 11 12 13 14 15 16 17 18 19 20 21 22 23 24 25 26 27 28 29 30
000
FTUS41 KCAR 020500
TAFCAR
TAF
KCAR 020534Z 0206/0306 16006KT 5SM BR OVC006
      TEMPO 0206/0210 3SM BR OVC004
     FM021200 16006KT 6SM BR OVC008
     FM021400 18008KT P6SM BKN010
     FM021600 18008KT P6SM BKN020
     FM021800 18010KT P6SM BKN040
     FM022100 18010KT P6SM VCSH BKN040
     FM030300 20010KT 3SM -SHRA BR OVC010=

USA.gov is the U.S. government's official web portal to all federal, state and local government web resources and services.